KUIN/UIN METAR and TAF weather

Enter ICAO airport designator
Station Type Date Time Source
KUIN METAR 2019/07/17 18:54 UTC NOAA

KUIN 171854Z AUTO 15008G15KT 10SM FEW037 33/22 A2993 RMK AO2 SLP125 T03280222


Station Type Date Time Source
KUIN Decoded METAR 2019/07/17 18:54 UTC NOAA

QUINCY MUNI. BALDWIN FIELD, IL, United States (KUIN) 39-56N 091-12W
Jul 17, 2019 - 02:54 PM EDT / 2019.07.17 1854 UTC
Wind: from the SSE (150 degrees) at 9 MPH (8 KT) gusting to 17 MPH (15 KT):0
Visibility: 10 mile(s):0
Sky conditions: mostly clear
Temperature: 91.0 F (32.8 C)
Heat index: 98.1 F (36.7 C):1
Dew Point: 72.0 F (22.2 C)
Relative Humidity: 53%
Pressure (altimeter): 29.93 in. Hg (1013 hPa)
ob: KUIN 171854Z AUTO 15008G15KT 10SM FEW037 33/22 A2993 RMK AO2 SLP125 T03280222
cycle: 19

Station Type Date Time Source
KUIN TAF 2019/07/17 18:30 UTC NOAA

TAF KUIN 171727Z 1718/1818 18005KT P6SM SCT035
FM172100 19009KT P6SM VCTS SCT080CB
FM180100 20005KT P6SM FEW250
FM181300 21010G17KT P6SM FEW250

Example: see airport list